La Crosse, WI

8:17 PM CST on December 03, 2016 (GMT -0600)
Arbor Hills | | Change Station
Active Advisory: Winter Weather Advisory

Elev 1234 ft 43.80 °N, 91.19 °W | Updated 0 second ago

Mostly Cloudy
Mostly Cloudy
30.4 °F
Feels Like 30 °F
N
0.0
Wind Variable Wind from SSW
Gusts 0.0 mph

Today
High -- | Low -- °F
--% Chance of Precip.
Yesterday
High -- | Low -- °F
Precip. -- in
Pressure 30.27 in
Visibility 10.0 miles
Clouds Scattered Clouds 3000 ft
Scattered Clouds 9500 ft
Mostly Cloudy 11000 ft
Windchill 30 °F
Dew Point 25 °F
Humidity 81%
Rainfall 0.00 in
Snow Depth Not available.
7:21 AM 4:28 PM
Waxing Crescent, 19% visible
METAR KLSE 040153Z 11005KT 10SM SCT030 SCT095 BKN110 01/M03 A3023 RMK AO2 SLP249 T00111033 $
Pressure 30.27 in
Visibility 10.0 miles
Clouds Scattered Clouds 3000 ft
Scattered Clouds 9500 ft
Mostly Cloudy 11000 ft
Windchill 30 °F
Dew Point 25 °F
Humidity 81%
Rainfall 0.00 in
Snow Depth Not available.
7:21 AM 4:28 PM
Waxing Crescent, 19% visible
METAR KLSE 040153Z 11005KT 10SM SCT030 SCT095 BKN110 01/M03 A3023 RMK AO2 SLP249 T00111033 $

10-Day Weather Forecast

Almanac

Astronomy

Dec. 03, 2016 Rise Set
Actual Time
Civil Twilight
Nautical Twilight
Astronomical Twilight
Moon
Length of Visible Light
Length of Day
Tomorrow will be .
, % of the Moon is Illuminated

Today's Extremes

State Highs State Lows

Community

WunderPhotos

Upload Photos

1,955,562 photos uploaded!

WunderBlog® & News

Nearby

Air Quality

  Air Quality AQ Index Pollutant
Not available.

Snow Depth

Station Depth Elevation

Earthquake Activity

City Distance Mag. Time & Date
Minimum magnitude displayed is 2.5.

Coastal Water Temperatures

Place Temperature

Stations

Nearby Weather Stations

Station Location Temp. Windchill Dew Point Humidity Wind Precip. Elev Updated Type
                   

Watches & Warnings

Winter Weather Advisory
Issued: 7:43 PM CST Dec. 3, 2016 – National Weather Service

... Winter Weather Advisory remains in effect from 3 am to 3 PM
CST Sunday...

* expect snow to develop around 3 am Sunday and then diminish
around 3 PM Sunday.

* The heaviest snowfall rates will occur between 6 am and noon
Sunday.

* Total snow accumulations of 2 to 4 inches are expected.

* Look for reduced visibilities at times.

* Plan on slippery Road conditions.

Precautionary/preparedness actions...

A Winter Weather Advisory means that periods of snow... sleet or
freezing rain will cause travel difficulties. Be prepared for
slippery roads and limited visibilities... and use caution while
driving. The latest Road conditions for the state you are calling
from can be obtained by calling 5 1 1.